createdAt,value
2019-01-29T00:04:08.051Z,33.95
2019-01-29T00:09:12.277Z,32.77
2019-01-29T00:14:16.371Z,32.95
2019-01-29T00:19:20.454Z,36.85
2019-01-29T00:24:24.543Z,39.03
2019-01-29T00:29:28.613Z,40.80
2019-01-29T00:34:32.689Z,43.60
2019-01-29T00:39:38.222Z,39.25
2019-01-29T00:44:42.289Z,43.27
2019-01-29T00:49:46.352Z,47.55
2019-01-29T00:54:50.490Z,46.83
2019-01-29T00:59:54.527Z,45.40
2019-01-29T01:04:58.612Z,48.55
2019-01-29T01:10:02.815Z,48.68
2019-01-29T01:15:08.351Z,47.57
2019-01-29T01:20:13.404Z,51.02
2019-01-29T01:25:17.734Z,47.85
2019-01-29T01:30:21.976Z,50.20
2019-01-29T01:35:26.041Z,50.50
2019-01-29T01:40:30.121Z,45.13
2019-01-29T01:45:34.275Z,48.90
2019-01-29T01:50:38.416Z,52.40
2019-01-29T01:55:42.470Z,48.07
2019-01-29T02:00:46.558Z,48.85
2019-01-29T02:05:50.596Z,50.20
2019-01-29T02:10:54.724Z,48.78
2019-01-29T02:15:58.810Z,48.38
2019-01-29T02:21:02.947Z,51.63
2019-01-29T02:26:07.164Z,58.28
2019-01-29T02:31:11.353Z,58.70
2019-01-29T02:36:15.466Z,58.20
2019-01-29T02:41:19.539Z,57.33
2019-01-29T02:46:23.986Z,56.45
2019-01-29T02:51:28.281Z,56.77
2019-01-29T02:56:32.458Z,56.02
2019-01-29T03:01:36.750Z,54.50
2019-01-29T03:06:40.893Z,58.60
2019-01-29T03:11:45.210Z,55.83
2019-01-29T03:16:49.355Z,54.43
2019-01-29T03:21:53.425Z,56.37
2019-01-29T03:26:57.486Z,47.13
2019-01-29T03:32:01.554Z,54.27
2019-01-29T03:37:05.631Z,48.55
2019-01-29T03:42:09.777Z,48.70
2019-01-29T03:47:13.879Z,51.48
2019-01-29T03:52:17.924Z,53.73
2019-01-29T03:57:22.018Z,46.95
2019-01-29T04:02:26.146Z,51.00
2019-01-29T04:07:30.314Z,49.05
2019-01-29T04:12:34.340Z,51.37
2019-01-29T04:17:38.413Z,50.38
2019-01-29T04:22:42.476Z,49.03
2019-01-29T04:27:46.562Z,52.20
2019-01-29T04:32:50.650Z,50.78
2019-01-29T04:37:54.732Z,49.45
2019-01-29T04:42:59.000Z,45.33
2019-01-29T04:48:03.067Z,46.33
2019-01-29T04:53:07.282Z,46.43
2019-01-29T04:58:12.520Z,45.67
2019-01-29T05:03:16.652Z,50.73
2019-01-29T05:08:20.724Z,48.07
2019-01-29T05:13:24.805Z,46.43
2019-01-29T05:18:28.878Z,40.47
2019-01-29T05:23:32.942Z,42.55
2019-01-29T05:28:37.083Z,44.33
2019-01-29T05:33:41.660Z,45.23
2019-01-29T05:38:45.824Z,40.83
2019-01-29T05:43:49.960Z,41.37
2019-01-29T05:48:54.020Z,42.50
2019-01-29T05:53:58.056Z,40.00
2019-01-29T05:59:02.109Z,42.33
2019-01-29T06:04:06.258Z,38.33
2019-01-29T06:09:10.402Z,37.93
2019-01-29T06:14:14.514Z,36.47
2019-01-29T06:19:18.613Z,33.65
2019-01-29T06:24:25.721Z,37.57
2019-01-29T06:29:28.347Z,39.70
2019-01-29T06:34:32.415Z,37.70
2019-01-29T06:39:36.477Z,38.67
2019-01-29T06:44:40.638Z,39.78
2019-01-29T06:49:44.712Z,31.70
2019-01-29T06:54:48.840Z,33.23
2019-01-29T06:59:52.916Z,31.25
2019-01-29T07:04:56.982Z,30.30
2019-01-29T07:10:01.123Z,28.35
2019-01-29T07:15:06.917Z,30.15
2019-01-29T07:20:11.497Z,31.23
2019-01-29T07:25:15.556Z,30.45
2019-01-29T07:30:19.640Z,28.83
2019-01-29T07:35:23.898Z,20.85
2019-01-29T07:40:28.001Z,13.28
2019-01-29T07:45:32.118Z,16.07
2019-01-29T07:50:36.225Z,18.67
2019-01-29T07:55:40.290Z,17.73
2019-01-29T08:00:44.347Z,18.67
2019-01-29T08:05:48.445Z,14.25
2019-01-29T08:10:52.491Z,16.27
2019-01-29T08:15:56.625Z,21.07
2019-01-29T08:21:00.646Z,18.57
2019-01-29T08:26:04.716Z,18.77
2019-01-29T08:31:08.967Z,18.27
2019-01-29T08:36:13.275Z,18.02
2019-01-29T08:41:17.338Z,17.23
2019-01-29T08:46:23.283Z,18.80
2019-01-29T08:51:27.144Z,17.10
2019-01-29T08:56:31.206Z,17.48
2019-01-29T09:01:35.302Z,16.05
2019-01-29T09:06:39.486Z,17.40
2019-01-29T09:11:43.559Z,16.95
2019-01-29T09:16:47.640Z,17.12
2019-01-29T09:21:51.716Z,15.55
2019-01-29T09:26:55.797Z,16.65
2019-01-29T09:31:59.876Z,16.00
2019-01-29T09:37:03.935Z,15.70
2019-01-29T09:42:08.075Z,17.57
2019-01-29T09:47:12.465Z,13.87
2019-01-29T09:52:16.592Z,17.40
2019-01-29T09:57:20.664Z,11.78
2019-01-29T10:02:24.763Z,12.80
2019-01-29T10:07:28.842Z,16.85
2019-01-29T10:12:32.918Z,13.67
2019-01-29T10:17:37.119Z,13.75
2019-01-29T10:22:41.188Z,8.98
2019-01-29T10:27:45.335Z,12.13
2019-01-29T10:32:49.415Z,11.38
2019-01-29T10:37:53.518Z,11.03
2019-01-29T10:42:57.648Z,8.38
2019-01-29T10:48:01.747Z,12.55
2019-01-29T10:53:05.987Z,11.93
2019-01-29T10:58:10.044Z,18.23
2019-01-29T11:03:14.626Z,12.98
2019-01-29T11:08:19.772Z,11.07
2019-01-29T11:13:23.839Z,10.60
2019-01-29T11:18:28.039Z,9.43
2019-01-29T11:23:32.100Z,6.83
2019-01-29T11:28:36.164Z,8.97
2019-01-29T11:33:40.198Z,8.15
2019-01-29T11:38:44.276Z,7.30
2019-01-29T11:43:48.337Z,6.77
2019-01-29T11:48:52.400Z,6.87
2019-01-29T11:53:56.473Z,8.70
2019-01-29T11:59:00.539Z,7.97
2019-01-29T12:04:05.465Z,6.80
2019-01-29T12:09:10.568Z,8.05
2019-01-29T12:14:14.644Z,8.00
2019-01-29T12:19:18.703Z,8.05
2019-01-29T12:24:22.753Z,6.58
2019-01-29T12:29:26.817Z,8.08
2019-01-29T12:34:30.935Z,4.75
2019-01-29T12:39:35.008Z,6.50
2019-01-29T12:44:39.115Z,6.45
2019-01-29T12:49:43.214Z,8.38
2019-01-29T12:54:47.277Z,7.55
2019-01-29T12:59:51.509Z,6.60
2019-01-29T13:04:55.699Z,6.72
2019-01-29T13:09:59.994Z,7.00
2019-01-29T13:15:05.745Z,9.28
2019-01-29T13:20:10.845Z,7.55
2019-01-29T13:25:14.898Z,6.92
2019-01-29T13:30:24.326Z,7.90
2019-01-29T13:35:30.000Z,7.25
2019-01-29T13:40:34.051Z,7.90
2019-01-29T13:45:39.138Z,6.37
2019-01-29T13:50:44.526Z,9.00
2019-01-29T13:55:48.652Z,7.42
2019-01-29T14:00:52.849Z,12.93
2019-01-29T14:05:57.058Z,9.55
2019-01-29T14:11:01.172Z,10.03
2019-01-29T14:16:06.307Z,9.23
2019-01-29T14:36:27.310Z,14.05
2019-01-29T14:41:31.375Z,10.25
2019-01-29T14:46:35.430Z,10.20
2019-01-29T14:51:39.887Z,11.90
2019-01-29T14:56:44.423Z,13.00
2019-01-29T15:01:48.805Z,11.33
2019-01-29T15:06:52.956Z,13.37
2019-01-29T15:11:57.034Z,12.03
2019-01-29T15:17:03.914Z,12.25
2019-01-29T15:22:08.059Z,12.03
2019-01-29T15:27:12.131Z,10.10
2019-01-29T15:32:16.210Z,11.18
2019-01-29T15:37:20.350Z,10.60
2019-01-29T15:42:24.449Z,11.93
2019-01-29T15:47:28.580Z,11.83
2019-01-29T15:52:32.657Z,9.95
2019-01-29T15:57:36.823Z,12.00
2019-01-29T16:02:40.915Z,11.18
2019-01-29T16:07:45.140Z,10.48
2019-01-29T16:12:49.334Z,8.80
2019-01-29T16:17:53.546Z,7.25
2019-01-29T16:22:57.690Z,10.90
2019-01-29T16:28:01.854Z,7.75
2019-01-29T16:33:06.043Z,7.78
2019-01-29T16:38:10.874Z,8.58
2019-01-29T16:43:15.031Z,8.28
2019-01-29T16:48:21.945Z,7.87
2019-01-29T16:53:26.058Z,12.05
2019-01-29T16:58:30.087Z,7.80
2019-01-29T17:03:34.183Z,7.70
2019-01-29T17:08:38.300Z,9.73
2019-01-29T17:13:42.375Z,7.47
2019-01-29T17:18:46.658Z,8.73
2019-01-29T17:23:51.843Z,8.13
2019-01-29T17:28:56.056Z,8.30
2019-01-29T17:34:00.211Z,9.70
2019-01-29T17:39:05.863Z,8.75
2019-01-29T17:44:10.016Z,9.38
2019-01-29T17:49:14.079Z,9.78
2019-01-29T17:54:18.159Z,15.15
2019-01-29T17:59:22.233Z,13.62
2019-01-29T18:04:26.312Z,10.75
2019-01-29T18:09:30.374Z,11.33
2019-01-29T18:14:34.571Z,6.75
2019-01-29T18:19:38.656Z,10.53
2019-01-29T18:24:42.842Z,8.85
2019-01-29T18:29:46.919Z,9.90
2019-01-29T18:34:50.974Z,10.38
2019-01-29T18:39:55.053Z,9.20
2019-01-29T18:44:59.180Z,8.05
2019-01-29T18:50:04.881Z,8.13
2019-01-29T18:55:09.717Z,9.68
2019-01-29T19:00:18.078Z,7.62
2019-01-29T19:05:23.223Z,9.45
2019-01-29T19:10:28.323Z,9.08
2019-01-29T19:15:33.353Z,11.27
2019-01-29T19:20:37.508Z,12.60
2019-01-29T19:25:42.708Z,9.67
2019-01-29T19:30:46.775Z,19.50
2019-01-29T19:35:50.863Z,26.80
2019-01-29T19:40:54.996Z,12.77
2019-01-29T19:45:59.409Z,10.43
2019-01-29T19:51:03.467Z,8.45
2019-01-29T19:56:07.557Z,9.33
2019-01-29T20:01:11.626Z,8.20
2019-01-29T20:06:15.762Z,7.77
2019-01-29T20:11:19.841Z,9.47
2019-01-29T20:16:23.911Z,8.30
2019-01-29T20:21:27.977Z,8.63
2019-01-29T20:26:32.204Z,12.50
2019-01-29T20:31:36.459Z,11.75
2019-01-29T20:36:40.520Z,9.07
2019-01-29T20:41:44.786Z,8.80
2019-01-29T20:46:48.983Z,6.95
2019-01-29T20:51:53.075Z,6.78
2019-01-29T20:57:00.271Z,8.65
2019-01-29T21:02:04.743Z,9.00
2019-01-29T21:07:08.868Z,7.23
2019-01-29T21:12:13.030Z,9.25
2019-01-29T21:17:17.173Z,8.80
2019-01-29T21:22:21.422Z,10.43
2019-01-29T21:27:25.486Z,11.08
2019-01-29T21:32:29.637Z,12.80
2019-01-29T21:37:33.726Z,9.13
2019-01-29T21:42:37.979Z,9.93
2019-01-29T21:47:42.085Z,12.00
2019-01-29T21:52:47.724Z,17.73
2019-01-29T21:57:51.843Z,17.17
2019-01-29T22:02:55.899Z,18.47
2019-01-29T22:07:59.958Z,17.90
2019-01-29T22:13:04.579Z,24.63
2019-01-29T22:18:08.655Z,21.30
2019-01-29T22:23:12.728Z,23.10
2019-01-29T22:28:16.964Z,22.87
2019-01-29T22:33:21.011Z,22.97
2019-01-29T22:38:25.085Z,24.73
2019-01-29T22:43:29.266Z,26.13
2019-01-29T22:48:33.350Z,26.97
2019-01-29T22:53:37.612Z,32.45
2019-01-29T22:58:41.744Z,26.67
2019-01-29T23:03:45.871Z,23.27
2019-01-29T23:08:49.941Z,29.97
2019-01-29T23:13:54.017Z,30.70
2019-01-29T23:18:58.160Z,26.27
2019-01-29T23:24:02.207Z,26.43
2019-01-29T23:29:06.272Z,28.90
2019-01-29T23:34:10.425Z,29.50
2019-01-29T23:39:14.564Z,27.70
2019-01-29T23:44:18.635Z,31.00
2019-01-29T23:49:22.728Z,28.57
2019-01-29T23:54:26.789Z,29.03
2019-01-29T23:59:30.856Z,25.20
